DLH583 HECA-EDDF
Flight info
| Callsign | DLH583 |
|---|---|
| Flight time | 3h 59m |
| Altitude | 34000 |
| Route | DCT MENKU L617 NOZ L551 ANTAR DCT RIGRO DCT FSK/N0450F360 UL608 DISOR DCT LONTA UL608 DOLEV DCT LURID DCT ZAG DCT BEDOX DCT SIMBA DCT AKINI T161 DEBHI DEBHI1B |
| Aircraft | A320/M-SDE3FGHIRWY/LB1 |
Departure
| Time | 2026-05-06 13:04 |
|---|---|
| Airport | Cairo International Airport (HECA) |
Arrival
| Time | 2026-05-06 17:03 |
|---|---|
| Airport | Frankfurt Main Airport (EDDF) |
| Time | Latitude | Longitude | Altitude | Speed | Heading |
|---|---|---|---|---|---|
| 2026-05-06 12:16 | 30.10858 | 31.39859 | 375 ft | 0 kts | 76° |
| 2026-05-06 12:53 | 30.10857 | 31.39850 | 374 ft | 4 kts | 77° |
| 2026-05-06 12:53 | 30.10851 | 31.39820 | 374 ft | 4 kts | 75° |
| 2026-05-06 12:54 | 30.10843 | 31.39790 | 374 ft | 4 kts | 69° |
| 2026-05-06 12:54 | 30.10833 | 31.39761 | 374 ft | 4 kts | 77° |
| 2026-05-06 12:54 | 30.10833 | 31.39737 | 374 ft | 1 kts | 111° |
| 2026-05-06 12:54 | 30.10834 | 31.39735 | 374 ft | 0 kts | 111° |
| 2026-05-06 12:58 | 30.10831 | 31.39742 | 374 ft | 3 kts | 111° |
| 2026-05-06 12:58 | 30.10810 | 31.39769 | 374 ft | 7 kts | 145° |
| 2026-05-06 12:58 | 30.10759 | 31.39787 | 374 ft | 8 kts | 166° |
| 2026-05-06 12:58 | 30.10714 | 31.39801 | 374 ft | 6 kts | 165° |
| 2026-05-06 12:59 | 30.10682 | 31.39811 | 374 ft | 4 kts | 165° |
| 2026-05-06 12:59 | 30.10633 | 31.39825 | 374 ft | 11 kts | 166° |
| 2026-05-06 12:59 | 30.10562 | 31.39846 | 374 ft | 10 kts | 166° |
| 2026-05-06 12:59 | 30.10502 | 31.39864 | 374 ft | 9 kts | 165° |
| 2026-05-06 13:00 | 30.10440 | 31.39875 | 374 ft | 8 kts | 185° |
| 2026-05-06 13:00 | 30.10399 | 31.39842 | 374 ft | 7 kts | 230° |
| 2026-05-06 13:00 | 30.10353 | 31.39782 | 374 ft | 12 kts | 228° |
| 2026-05-06 13:00 | 30.10289 | 31.39699 | 374 ft | 13 kts | 228° |
| 2026-05-06 13:01 | 30.10231 | 31.39626 | 374 ft | 11 kts | 226° |
| 2026-05-06 13:01 | 30.10177 | 31.39573 | 374 ft | 9 kts | 196° |
| 2026-05-06 13:01 | 30.10125 | 31.39595 | 374 ft | 7 kts | 144° |
| 2026-05-06 13:01 | 30.10086 | 31.39630 | 374 ft | 9 kts | 142° |
| 2026-05-06 13:02 | 30.10032 | 31.39684 | 374 ft | 10 kts | 135° |
| 2026-05-06 13:02 | 30.10006 | 31.39747 | 374 ft | 8 kts | 101° |
| 2026-05-06 13:02 | 30.10006 | 31.39800 | 374 ft | 6 kts | 84° |
| 2026-05-06 13:02 | 30.10020 | 31.39871 | 374 ft | 18 kts | 71° |
| 2026-05-06 13:03 | 30.10152 | 31.40076 | 374 ft | 59 kts | 48° |
| 2026-05-06 13:03 | 30.10566 | 31.40622 | 374 ft | 118 kts | 49° |
| 2026-05-06 13:03 | 30.11220 | 31.41483 | 376 ft | 164 kts | 49° |
| 2026-05-06 13:03 | 30.11987 | 31.42518 | 902 ft | 167 kts | 49° |
| 2026-05-06 13:04 | 30.12888 | 31.43295 | 1467 ft | 165 kts | 7° |
| 2026-05-06 13:04 | 30.14003 | 31.43059 | 2064 ft | 169 kts | 329° |
| 2026-05-06 13:04 | 30.14970 | 31.42227 | 2498 ft | 183 kts | 323° |
| 2026-05-06 13:04 | 30.16034 | 31.41277 | 2723 ft | 204 kts | 321° |
| 2026-05-06 13:05 | 30.17133 | 31.40077 | 2953 ft | 229 kts | 316° |
| 2026-05-06 13:05 | 30.18295 | 31.38678 | 3285 ft | 251 kts | 315° |
| 2026-05-06 13:05 | 30.19515 | 31.37183 | 3933 ft | 259 kts | 314° |
| 2026-05-06 13:05 | 30.20758 | 31.35664 | 4778 ft | 260 kts | 315° |
| 2026-05-06 13:06 | 30.22013 | 31.34148 | 5590 ft | 262 kts | 315° |
| 2026-05-06 13:06 | 30.23288 | 31.32622 | 6353 ft | 266 kts | 315° |
| 2026-05-06 13:06 | 30.24585 | 31.31083 | 7114 ft | 268 kts | 315° |
| 2026-05-06 13:06 | 30.25895 | 31.29535 | 7867 ft | 271 kts | 315° |
| 2026-05-06 13:07 | 30.27226 | 31.27966 | 8586 ft | 274 kts | 314° |
| 2026-05-06 13:07 | 30.28589 | 31.26362 | 9334 ft | 278 kts | 314° |
| 2026-05-06 13:07 | 30.29937 | 31.24775 | 9992 ft | 282 kts | 314° |
| 2026-05-06 13:07 | 30.31363 | 31.23095 | 10350 ft | 300 kts | 314° |
| 2026-05-06 13:08 | 30.32881 | 31.21304 | 10483 ft | 323 kts | 314° |
| 2026-05-06 13:08 | 30.34546 | 31.19341 | 10729 ft | 340 kts | 314° |
| 2026-05-06 13:08 | 30.36174 | 31.17421 | 11237 ft | 346 kts | 314° |
| 2026-05-06 13:08 | 30.37864 | 31.15426 | 11855 ft | 349 kts | 313° |
| 2026-05-06 13:09 | 30.39570 | 31.13406 | 12502 ft | 351 kts | 313° |
| 2026-05-06 13:09 | 30.41287 | 31.11374 | 13137 ft | 353 kts | 313° |
| 2026-05-06 13:09 | 30.43014 | 31.09330 | 13756 ft | 356 kts | 313° |
| 2026-05-06 13:09 | 30.44754 | 31.07274 | 14310 ft | 359 kts | 313° |
| 2026-05-06 13:10 | 30.46531 | 31.05177 | 14843 ft | 361 kts | 313° |
| 2026-05-06 13:10 | 30.48275 | 31.03116 | 15403 ft | 363 kts | 313° |
| 2026-05-06 13:10 | 30.50048 | 31.01017 | 15943 ft | 365 kts | 312° |
| 2026-05-06 13:10 | 30.51834 | 30.98896 | 16465 ft | 368 kts | 312° |
| 2026-05-06 13:11 | 30.53650 | 30.96734 | 16981 ft | 371 kts | 312° |
| 2026-05-06 13:11 | 30.55457 | 30.94582 | 17512 ft | 373 kts | 312° |
| 2026-05-06 13:11 | 30.57277 | 30.92414 | 18032 ft | 376 kts | 312° |
| 2026-05-06 13:11 | 30.59108 | 30.90233 | 18499 ft | 378 kts | 312° |
| 2026-05-06 13:12 | 30.60979 | 30.88068 | 18939 ft | 381 kts | 314° |
| 2026-05-06 13:12 | 30.62942 | 30.85982 | 19374 ft | 384 kts | 316° |
| 2026-05-06 13:12 | 30.64965 | 30.83948 | 19799 ft | 387 kts | 317° |
| 2026-05-06 13:12 | 30.67028 | 30.81920 | 20222 ft | 389 kts | 317° |
| 2026-05-06 13:13 | 30.69103 | 30.79877 | 20638 ft | 391 kts | 316° |
| 2026-05-06 13:13 | 30.71176 | 30.77811 | 21048 ft | 394 kts | 316° |
| 2026-05-06 13:13 | 30.73253 | 30.75719 | 21453 ft | 396 kts | 316° |
| 2026-05-06 13:13 | 30.75330 | 30.73608 | 21848 ft | 398 kts | 315° |
| 2026-05-06 13:14 | 30.77412 | 30.71480 | 22245 ft | 400 kts | 315° |
| 2026-05-06 13:14 | 30.79506 | 30.69331 | 22636 ft | 402 kts | 315° |
| 2026-05-06 13:14 | 30.81611 | 30.67170 | 23041 ft | 404 kts | 315° |
| 2026-05-06 13:14 | 30.83749 | 30.64979 | 23457 ft | 405 kts | 315° |
| 2026-05-06 13:15 | 30.85872 | 30.62807 | 23809 ft | 407 kts | 315° |
| 2026-05-06 13:15 | 30.88006 | 30.60627 | 24137 ft | 409 kts | 315° |
| 2026-05-06 13:15 | 30.90143 | 30.58440 | 24462 ft | 410 kts | 315° |
| 2026-05-06 13:15 | 30.92287 | 30.56241 | 24772 ft | 411 kts | 315° |
| 2026-05-06 13:16 | 30.93714 | 30.54777 | 24978 ft | 412 kts | 315° |
| 2026-05-06 13:16 | 30.95868 | 30.52564 | 25290 ft | 414 kts | 315° |
| 2026-05-06 13:16 | 30.98030 | 30.50340 | 25602 ft | 415 kts | 315° |
| 2026-05-06 13:16 | 31.00197 | 30.48112 | 25909 ft | 416 kts | 315° |
| 2026-05-06 13:17 | 31.02411 | 30.45838 | 26218 ft | 418 kts | 315° |
| 2026-05-06 13:17 | 31.04595 | 30.43596 | 26514 ft | 419 kts | 315° |
| 2026-05-06 13:17 | 31.06786 | 30.41346 | 26806 ft | 421 kts | 315° |
| 2026-05-06 13:17 | 31.08986 | 30.39081 | 27107 ft | 422 kts | 315° |
| 2026-05-06 13:18 | 31.11191 | 30.36809 | 27395 ft | 423 kts | 315° |
| 2026-05-06 13:18 | 31.13397 | 30.34532 | 27675 ft | 424 kts | 315° |
| 2026-05-06 13:18 | 31.15612 | 30.32246 | 27963 ft | 425 kts | 315° |
| 2026-05-06 13:18 | 31.17836 | 30.29951 | 28223 ft | 427 kts | 315° |
| 2026-05-06 13:19 | 31.20062 | 30.27649 | 28482 ft | 428 kts | 315° |
| 2026-05-06 13:19 | 31.22294 | 30.25339 | 28725 ft | 429 kts | 315° |
| 2026-05-06 13:19 | 31.24531 | 30.23022 | 28970 ft | 431 kts | 315° |
| 2026-05-06 13:19 | 31.26780 | 30.20696 | 29213 ft | 432 kts | 315° |
| 2026-05-06 13:20 | 31.29036 | 30.18364 | 29449 ft | 433 kts | 315° |
| 2026-05-06 13:20 | 31.31296 | 30.16026 | 29687 ft | 434 kts | 315° |
| 2026-05-06 13:20 | 31.33554 | 30.13683 | 30024 ft | 433 kts | 315° |
| 2026-05-06 13:20 | 31.35807 | 30.11345 | 30336 ft | 432 kts | 315° |
| 2026-05-06 13:21 | 31.38052 | 30.09017 | 30628 ft | 431 kts | 315° |
| 2026-05-06 13:21 | 31.40295 | 30.06689 | 30908 ft | 430 kts | 315° |
| 2026-05-06 13:21 | 31.42557 | 30.04338 | 31197 ft | 429 kts | 315° |
| 2026-05-06 13:21 | 31.44786 | 30.02017 | 31484 ft | 428 kts | 315° |
| 2026-05-06 13:22 | 31.46977 | 29.99734 | 31787 ft | 426 kts | 315° |
| 2026-05-06 13:22 | 31.49190 | 29.97423 | 32109 ft | 424 kts | 315° |
| 2026-05-06 13:22 | 31.51389 | 29.95126 | 32414 ft | 423 kts | 315° |
| 2026-05-06 13:22 | 31.53581 | 29.92834 | 32706 ft | 421 kts | 315° |
| 2026-05-06 13:23 | 31.55773 | 29.90546 | 32983 ft | 420 kts | 315° |
| 2026-05-06 13:23 | 31.57987 | 29.88242 | 33248 ft | 419 kts | 315° |
| 2026-05-06 13:23 | 31.60167 | 29.85972 | 33525 ft | 418 kts | 315° |
| 2026-05-06 13:23 | 31.62338 | 29.83705 | 33804 ft | 417 kts | 315° |
| 2026-05-06 13:24 | 31.64502 | 29.81437 | 34042 ft | 417 kts | 315° |
| 2026-05-06 13:24 | 31.68822 | 29.76900 | 34107 ft | 415 kts | 315° |
| 2026-05-06 13:25 | 31.73103 | 29.72398 | 34108 ft | 415 kts | 315° |
| 2026-05-06 13:25 | 31.77436 | 29.67851 | 34106 ft | 415 kts | 315° |
| 2026-05-06 13:26 | 31.81717 | 29.63355 | 34105 ft | 415 kts | 315° |
| 2026-05-06 13:26 | 31.86053 | 29.58789 | 34108 ft | 416 kts | 315° |
| 2026-05-06 13:27 | 31.90365 | 29.54240 | 34104 ft | 416 kts | 315° |
| 2026-05-06 13:27 | 31.94678 | 29.49692 | 34099 ft | 416 kts | 315° |
| 2026-05-06 13:28 | 31.98989 | 29.45133 | 34100 ft | 417 kts | 317° |
| 2026-05-06 13:28 | 32.03906 | 29.41444 | 34100 ft | 422 kts | 328° |
| 2026-05-06 13:29 | 32.09076 | 29.38162 | 34100 ft | 422 kts | 328° |
| 2026-05-06 13:29 | 32.14244 | 29.34865 | 34114 ft | 422 kts | 328° |
| 2026-05-06 13:30 | 32.19411 | 29.31559 | 34114 ft | 422 kts | 328° |
| 2026-05-06 13:30 | 32.24580 | 29.28250 | 34111 ft | 422 kts | 328° |
| 2026-05-06 13:31 | 32.29744 | 29.24942 | 34114 ft | 422 kts | 328° |
| 2026-05-06 13:31 | 32.34909 | 29.21634 | 34108 ft | 422 kts | 328° |
| 2026-05-06 13:32 | 32.40071 | 29.18307 | 34104 ft | 422 kts | 328° |
| 2026-05-06 13:32 | 32.45227 | 29.14978 | 34103 ft | 422 kts | 328° |
| 2026-05-06 13:33 | 32.50405 | 29.11655 | 34104 ft | 423 kts | 328° |
| 2026-05-06 13:33 | 32.55573 | 29.08315 | 34106 ft | 423 kts | 328° |
| 2026-05-06 13:34 | 32.60776 | 29.04951 | 34107 ft | 423 kts | 328° |
| 2026-05-06 13:34 | 32.65916 | 29.01631 | 34108 ft | 423 kts | 328° |
| 2026-05-06 13:35 | 32.71081 | 28.98283 | 34129 ft | 422 kts | 328° |
| 2026-05-06 13:35 | 32.76233 | 28.94935 | 34122 ft | 422 kts | 328° |
| 2026-05-06 13:36 | 32.81385 | 28.91588 | 34114 ft | 421 kts | 328° |
| 2026-05-06 13:36 | 32.86532 | 28.88238 | 34112 ft | 421 kts | 328° |
| 2026-05-06 13:37 | 32.91679 | 28.84894 | 34105 ft | 422 kts | 328° |
| 2026-05-06 13:37 | 32.96865 | 28.81521 | 34120 ft | 421 kts | 328° |
| 2026-05-06 13:38 | 33.02003 | 28.78161 | 34124 ft | 420 kts | 328° |
| 2026-05-06 13:38 | 33.07131 | 28.74806 | 34122 ft | 420 kts | 328° |
| 2026-05-06 13:39 | 33.12259 | 28.71459 | 34117 ft | 420 kts | 328° |
| 2026-05-06 13:39 | 33.17374 | 28.68106 | 34115 ft | 419 kts | 328° |
| 2026-05-06 13:40 | 33.22487 | 28.64748 | 34112 ft | 419 kts | 328° |
| 2026-05-06 13:40 | 33.27600 | 28.61381 | 34119 ft | 419 kts | 328° |
| 2026-05-06 13:41 | 33.32712 | 28.58014 | 34117 ft | 418 kts | 328° |
| 2026-05-06 13:41 | 33.37810 | 28.54655 | 34116 ft | 418 kts | 328° |
| 2026-05-06 13:42 | 33.42907 | 28.51293 | 34115 ft | 418 kts | 328° |
| 2026-05-06 13:42 | 33.47975 | 28.47943 | 34109 ft | 418 kts | 328° |
| 2026-05-06 13:43 | 33.53057 | 28.44571 | 34122 ft | 417 kts | 328° |
| 2026-05-06 13:43 | 33.57318 | 28.41750 | 34120 ft | 417 kts | 328° |
| 2026-05-06 13:44 | 33.62397 | 28.38388 | 34113 ft | 416 kts | 328° |
| 2026-05-06 13:44 | 33.67469 | 28.35023 | 34101 ft | 416 kts | 328° |
| 2026-05-06 13:45 | 33.72540 | 28.31644 | 34090 ft | 417 kts | 328° |
| 2026-05-06 13:45 | 33.80161 | 28.26568 | 34104 ft | 417 kts | 328° |
| 2026-05-06 13:46 | 33.85329 | 28.23338 | 34100 ft | 419 kts | 330° |
| 2026-05-06 13:46 | 33.90575 | 28.20279 | 34100 ft | 419 kts | 331° |
| 2026-05-06 13:47 | 33.95813 | 28.17198 | 34104 ft | 419 kts | 330° |
| 2026-05-06 13:47 | 34.01033 | 28.14061 | 34105 ft | 419 kts | 330° |
| 2026-05-06 13:48 | 34.06244 | 28.10910 | 34104 ft | 419 kts | 330° |
| 2026-05-06 13:48 | 34.11490 | 28.07738 | 34123 ft | 418 kts | 330° |
| 2026-05-06 13:49 | 34.16689 | 28.04586 | 34109 ft | 418 kts | 330° |
| 2026-05-06 13:49 | 34.21898 | 28.01434 | 34099 ft | 418 kts | 330° |
| 2026-05-06 13:50 | 34.27097 | 27.98286 | 34096 ft | 418 kts | 330° |
| 2026-05-06 13:50 | 34.32303 | 27.95134 | 34092 ft | 418 kts | 330° |
| 2026-05-06 13:51 | 34.37504 | 27.91979 | 34108 ft | 418 kts | 330° |
| 2026-05-06 13:51 | 34.42713 | 27.88812 | 34105 ft | 417 kts | 330° |
| 2026-05-06 13:52 | 34.47901 | 27.85649 | 34101 ft | 417 kts | 330° |
| 2026-05-06 13:52 | 34.53078 | 27.82491 | 34095 ft | 416 kts | 330° |
| 2026-05-06 13:53 | 34.58253 | 27.79336 | 34089 ft | 416 kts | 330° |
| 2026-05-06 13:53 | 34.63428 | 27.76167 | 34103 ft | 416 kts | 330° |
| 2026-05-06 13:54 | 34.68588 | 27.73008 | 34098 ft | 415 kts | 330° |
| 2026-05-06 13:54 | 34.73746 | 27.69847 | 34099 ft | 414 kts | 330° |
| 2026-05-06 13:55 | 34.78896 | 27.66677 | 34088 ft | 414 kts | 330° |
| 2026-05-06 13:55 | 34.84038 | 27.63510 | 34083 ft | 414 kts | 330° |
| 2026-05-06 13:56 | 34.89183 | 27.60344 | 34099 ft | 414 kts | 330° |
| 2026-05-06 13:56 | 34.94318 | 27.57182 | 34099 ft | 413 kts | 330° |
| 2026-05-06 13:57 | 34.99409 | 27.54031 | 34093 ft | 412 kts | 330° |
| 2026-05-06 13:57 | 35.04520 | 27.50864 | 34090 ft | 412 kts | 330° |
| 2026-05-06 13:58 | 35.09630 | 27.47698 | 34086 ft | 412 kts | 330° |
| 2026-05-06 13:58 | 35.14740 | 27.44533 | 34070 ft | 412 kts | 330° |
| 2026-05-06 13:59 | 35.19857 | 27.41356 | 34072 ft | 412 kts | 330° |
| 2026-05-06 13:59 | 35.25007 | 27.38142 | 34076 ft | 412 kts | 330° |
| 2026-05-06 14:00 | 35.30124 | 27.34948 | 34079 ft | 413 kts | 330° |
| 2026-05-06 14:00 | 35.35247 | 27.31755 | 34086 ft | 413 kts | 330° |
| 2026-05-06 14:01 | 35.40376 | 27.28560 | 34088 ft | 413 kts | 330° |
| 2026-05-06 14:01 | 35.45496 | 27.25363 | 34104 ft | 412 kts | 330° |
| 2026-05-06 14:02 | 35.50594 | 27.22163 | 34104 ft | 411 kts | 330° |
| 2026-05-06 14:02 | 35.55678 | 27.18967 | 34090 ft | 410 kts | 330° |
| 2026-05-06 14:03 | 35.60754 | 27.15775 | 34069 ft | 410 kts | 330° |
| 2026-05-06 14:03 | 35.65865 | 27.12561 | 34068 ft | 410 kts | 330° |
| 2026-05-06 14:04 | 35.70922 | 27.09377 | 34095 ft | 410 kts | 330° |
| 2026-05-06 14:04 | 35.76036 | 27.06149 | 34100 ft | 410 kts | 330° |
| 2026-05-06 14:05 | 35.81110 | 27.02936 | 34096 ft | 409 kts | 330° |
| 2026-05-06 14:05 | 35.86145 | 26.99745 | 34091 ft | 409 kts | 330° |
| 2026-05-06 14:06 | 35.91238 | 26.96519 | 34092 ft | 409 kts | 330° |
| 2026-05-06 14:06 | 35.94741 | 26.94299 | 34107 ft | 409 kts | 330° |
| 2026-05-06 14:07 | 35.96376 | 26.93254 | 34108 ft | 409 kts | 330° |
| 2026-05-06 14:08 | 36.01434 | 26.90032 | 34098 ft | 409 kts | 330° |
| 2026-05-06 14:08 | 36.06484 | 26.86822 | 34095 ft | 408 kts | 330° |
| 2026-05-06 14:09 | 36.10808 | 26.84067 | 34087 ft | 409 kts | 330° |
| 2026-05-06 14:10 | 36.13830 | 26.82134 | 34086 ft | 409 kts | 330° |
| 2026-05-06 14:10 | 36.18892 | 26.78901 | 34079 ft | 409 kts | 330° |
| 2026-05-06 14:11 | 36.23953 | 26.75676 | 34095 ft | 409 kts | 330° |
| 2026-05-06 14:11 | 36.29006 | 26.72438 | 34101 ft | 408 kts | 330° |
| 2026-05-06 14:12 | 36.34047 | 26.69195 | 34100 ft | 408 kts | 330° |
| 2026-05-06 14:12 | 36.39088 | 26.65950 | 34099 ft | 407 kts | 330° |
| 2026-05-06 14:13 | 36.44155 | 26.62689 | 34093 ft | 407 kts | 330° |
| 2026-05-06 14:13 | 36.49186 | 26.59444 | 34108 ft | 407 kts | 330° |
| 2026-05-06 14:14 | 36.54189 | 26.56223 | 34089 ft | 407 kts | 330° |
| 2026-05-06 14:14 | 36.59220 | 26.52978 | 34080 ft | 407 kts | 330° |
| 2026-05-06 14:15 | 36.64252 | 26.49714 | 34080 ft | 407 kts | 330° |
| 2026-05-06 14:15 | 36.69278 | 26.46449 | 34079 ft | 408 kts | 330° |
| 2026-05-06 14:16 | 36.74311 | 26.43173 | 34102 ft | 408 kts | 330° |
| 2026-05-06 14:16 | 36.79343 | 26.39896 | 34101 ft | 408 kts | 330° |
| 2026-05-06 14:17 | 36.84376 | 26.36628 | 34101 ft | 407 kts | 330° |
| 2026-05-06 14:17 | 36.89402 | 26.33353 | 34097 ft | 407 kts | 330° |
| 2026-05-06 14:18 | 36.94427 | 26.30066 | 34103 ft | 407 kts | 330° |
| 2026-05-06 14:18 | 36.99410 | 26.26801 | 34110 ft | 406 kts | 330° |
| 2026-05-06 14:19 | 37.04450 | 26.23484 | 34091 ft | 406 kts | 330° |
| 2026-05-06 14:19 | 37.09487 | 26.20180 | 34085 ft | 407 kts | 330° |
| 2026-05-06 14:20 | 37.14457 | 26.16921 | 34083 ft | 407 kts | 330° |
| 2026-05-06 14:20 | 37.19489 | 26.13612 | 34085 ft | 408 kts | 330° |
| 2026-05-06 14:21 | 37.24515 | 26.10298 | 34088 ft | 408 kts | 330° |
| 2026-05-06 14:21 | 37.29532 | 26.06982 | 34100 ft | 407 kts | 330° |
| 2026-05-06 14:22 | 37.34549 | 26.03659 | 34103 ft | 407 kts | 330° |
| 2026-05-06 14:22 | 37.39557 | 26.00342 | 34100 ft | 407 kts | 330° |
| 2026-05-06 14:23 | 37.44568 | 25.97021 | 34093 ft | 407 kts | 330° |
| 2026-05-06 14:23 | 37.49577 | 25.93700 | 34080 ft | 407 kts | 330° |
| 2026-05-06 14:24 | 37.54585 | 25.90362 | 34093 ft | 407 kts | 330° |
| 2026-05-06 14:24 | 37.59586 | 25.87003 | 34088 ft | 407 kts | 329° |
| 2026-05-06 14:25 | 37.64456 | 25.83361 | 34085 ft | 406 kts | 326° |
| 2026-05-06 14:25 | 37.69235 | 25.79554 | 34083 ft | 406 kts | 326° |
| 2026-05-06 14:26 | 37.74028 | 25.75760 | 34083 ft | 406 kts | 327° |
| 2026-05-06 14:26 | 37.78841 | 25.72006 | 34081 ft | 407 kts | 327° |
| 2026-05-06 14:27 | 37.83663 | 25.68250 | 34082 ft | 407 kts | 327° |
| 2026-05-06 14:27 | 37.88485 | 25.64495 | 34082 ft | 407 kts | 327° |
| 2026-05-06 14:28 | 37.93305 | 25.60725 | 34068 ft | 407 kts | 326° |
| 2026-05-06 14:28 | 37.98120 | 25.56951 | 34069 ft | 407 kts | 326° |
| 2026-05-06 14:29 | 38.02936 | 25.53171 | 34080 ft | 407 kts | 327° |
| 2026-05-06 14:29 | 38.07746 | 25.49394 | 34079 ft | 406 kts | 327° |
| 2026-05-06 14:30 | 38.12555 | 25.45617 | 34078 ft | 406 kts | 326° |
| 2026-05-06 14:30 | 38.17353 | 25.41828 | 34077 ft | 406 kts | 326° |
| 2026-05-06 14:31 | 38.22157 | 25.38033 | 34073 ft | 406 kts | 326° |
| 2026-05-06 14:31 | 38.26958 | 25.34237 | 34074 ft | 406 kts | 326° |
| 2026-05-06 14:32 | 38.31761 | 25.30427 | 34076 ft | 407 kts | 326° |
| 2026-05-06 14:32 | 38.36571 | 25.26611 | 34076 ft | 407 kts | 326° |
| 2026-05-06 14:33 | 38.41385 | 25.22794 | 34076 ft | 407 kts | 326° |
| 2026-05-06 14:33 | 38.46197 | 25.18973 | 34076 ft | 407 kts | 326° |
| 2026-05-06 14:34 | 38.51034 | 25.15123 | 34073 ft | 407 kts | 326° |
| 2026-05-06 14:34 | 38.55834 | 25.11287 | 34079 ft | 407 kts | 326° |
| 2026-05-06 14:35 | 38.60612 | 25.07466 | 34078 ft | 407 kts | 326° |
| 2026-05-06 14:35 | 38.65409 | 25.03624 | 34082 ft | 407 kts | 326° |
| 2026-05-06 14:36 | 38.70206 | 24.99767 | 34062 ft | 407 kts | 326° |
| 2026-05-06 14:36 | 38.75015 | 24.95903 | 34061 ft | 408 kts | 326° |
| 2026-05-06 14:37 | 38.79859 | 24.92007 | 34065 ft | 408 kts | 326° |
| 2026-05-06 14:37 | 38.84675 | 24.88132 | 34076 ft | 408 kts | 326° |
| 2026-05-06 14:38 | 38.89485 | 24.84247 | 34069 ft | 408 kts | 326° |
| 2026-05-06 14:38 | 38.94294 | 24.80359 | 34070 ft | 408 kts | 326° |
| 2026-05-06 14:39 | 38.99098 | 24.76464 | 34071 ft | 408 kts | 326° |
| 2026-05-06 14:39 | 39.03907 | 24.72565 | 34072 ft | 408 kts | 326° |
| 2026-05-06 14:40 | 39.08714 | 24.68665 | 34086 ft | 408 kts | 326° |
| 2026-05-06 14:40 | 39.13519 | 24.64751 | 34083 ft | 408 kts | 326° |
| 2026-05-06 14:41 | 39.18317 | 24.60830 | 34081 ft | 408 kts | 326° |
| 2026-05-06 14:41 | 39.23116 | 24.56919 | 34078 ft | 408 kts | 326° |
| 2026-05-06 14:42 | 39.27133 | 24.53639 | 34071 ft | 408 kts | 326° |
| 2026-05-06 14:42 | 39.31895 | 24.49733 | 34072 ft | 408 kts | 326° |
| 2026-05-06 14:43 | 39.36718 | 24.45777 | 34077 ft | 408 kts | 326° |
| 2026-05-06 14:43 | 39.41478 | 24.41870 | 34080 ft | 408 kts | 326° |
| 2026-05-06 14:44 | 39.46299 | 24.37904 | 34059 ft | 408 kts | 326° |
| 2026-05-06 14:45 | 39.53517 | 24.31937 | 34054 ft | 409 kts | 326° |
| 2026-05-06 14:45 | 39.58317 | 24.27968 | 34062 ft | 409 kts | 326° |
| 2026-05-06 14:46 | 39.63109 | 24.24004 | 34063 ft | 409 kts | 326° |
| 2026-05-06 14:46 | 39.67903 | 24.20023 | 34060 ft | 409 kts | 326° |
| 2026-05-06 14:47 | 39.72700 | 24.16039 | 34063 ft | 409 kts | 326° |
| 2026-05-06 14:47 | 39.77492 | 24.12048 | 34058 ft | 409 kts | 326° |
| 2026-05-06 14:48 | 39.82286 | 24.08050 | 34059 ft | 409 kts | 326° |
| 2026-05-06 14:48 | 39.87081 | 24.04050 | 34046 ft | 410 kts | 326° |
| 2026-05-06 14:49 | 39.91887 | 24.00033 | 34041 ft | 410 kts | 326° |
| 2026-05-06 14:49 | 39.96704 | 23.96005 | 34053 ft | 411 kts | 326° |
| 2026-05-06 14:50 | 40.01512 | 23.91976 | 34053 ft | 411 kts | 326° |
| 2026-05-06 14:50 | 40.06325 | 23.87926 | 34061 ft | 412 kts | 326° |
| 2026-05-06 14:51 | 40.11148 | 23.83862 | 34067 ft | 412 kts | 326° |
| 2026-05-06 14:51 | 40.15964 | 23.79797 | 34061 ft | 412 kts | 326° |
| 2026-05-06 14:52 | 40.20784 | 23.75726 | 34056 ft | 412 kts | 326° |
| 2026-05-06 14:52 | 40.25601 | 23.71651 | 34045 ft | 412 kts | 325° |
| 2026-05-06 14:53 | 40.30418 | 23.67566 | 34037 ft | 413 kts | 325° |
| 2026-05-06 14:53 | 40.35236 | 23.63465 | 34039 ft | 413 kts | 325° |
| 2026-05-06 14:54 | 40.40057 | 23.59361 | 34033 ft | 413 kts | 325° |
| 2026-05-06 14:54 | 40.44880 | 23.55261 | 34036 ft | 413 kts | 325° |
| 2026-05-06 14:55 | 40.49701 | 23.51148 | 34037 ft | 413 kts | 325° |
| 2026-05-06 14:55 | 40.54526 | 23.47032 | 34031 ft | 413 kts | 325° |
| 2026-05-06 14:56 | 40.59373 | 23.42887 | 34029 ft | 413 kts | 325° |
| 2026-05-06 14:56 | 40.64156 | 23.38771 | 34012 ft | 414 kts | 325° |
| 2026-05-06 14:57 | 40.68979 | 23.34612 | 33999 ft | 414 kts | 325° |
| 2026-05-06 14:57 | 40.73814 | 23.30447 | 34019 ft | 415 kts | 325° |
| 2026-05-06 14:58 | 40.78650 | 23.26279 | 34007 ft | 415 kts | 325° |
| 2026-05-06 14:58 | 40.83488 | 23.22089 | 34014 ft | 415 kts | 325° |
| 2026-05-06 14:59 | 40.88311 | 23.17906 | 34014 ft | 415 kts | 325° |
| 2026-05-06 14:59 | 40.93140 | 23.13718 | 34004 ft | 414 kts | 325° |
| 2026-05-06 15:00 | 40.97968 | 23.09532 | 33995 ft | 414 kts | 325° |
| 2026-05-06 15:00 | 41.02787 | 23.05347 | 33996 ft | 415 kts | 325° |
| 2026-05-06 15:01 | 41.07609 | 23.01147 | 34012 ft | 415 kts | 324° |
| 2026-05-06 15:01 | 41.11868 | 22.96056 | 34007 ft | 412 kts | 309° |
| 2026-05-06 15:02 | 41.15562 | 22.90242 | 34003 ft | 412 kts | 309° |
| 2026-05-06 15:02 | 41.19261 | 22.84432 | 33998 ft | 412 kts | 309° |
| 2026-05-06 15:03 | 41.22961 | 22.78615 | 33993 ft | 412 kts | 309° |
| 2026-05-06 15:03 | 41.26692 | 22.72826 | 33988 ft | 412 kts | 311° |
| 2026-05-06 15:04 | 41.30565 | 22.67192 | 33990 ft | 413 kts | 312° |
| 2026-05-06 15:04 | 41.34473 | 22.61587 | 33993 ft | 413 kts | 311° |
| 2026-05-06 15:05 | 41.38357 | 22.55927 | 33994 ft | 413 kts | 311° |
| 2026-05-06 15:05 | 41.42223 | 22.50232 | 33996 ft | 414 kts | 311° |
| 2026-05-06 15:06 | 41.46084 | 22.44530 | 33984 ft | 414 kts | 310° |
| 2026-05-06 15:06 | 41.49950 | 22.38819 | 33982 ft | 415 kts | 310° |
| 2026-05-06 15:07 | 41.53826 | 22.33097 | 33985 ft | 416 kts | 311° |
| 2026-05-06 15:07 | 41.57708 | 22.27357 | 33982 ft | 416 kts | 310° |
| 2026-05-06 15:08 | 41.61582 | 22.21608 | 33980 ft | 416 kts | 310° |
| 2026-05-06 15:08 | 41.65423 | 22.15895 | 33986 ft | 416 kts | 310° |
| 2026-05-06 15:09 | 41.69291 | 22.10136 | 33977 ft | 416 kts | 310° |
| 2026-05-06 15:09 | 41.73158 | 22.04368 | 33971 ft | 416 kts | 310° |
| 2026-05-06 15:10 | 41.77026 | 21.98595 | 33973 ft | 416 kts | 310° |
| 2026-05-06 15:10 | 41.80892 | 21.92797 | 33971 ft | 416 kts | 310° |
| 2026-05-06 15:11 | 41.84747 | 21.86992 | 33970 ft | 417 kts | 310° |
| 2026-05-06 15:11 | 41.87981 | 21.82130 | 33970 ft | 417 kts | 310° |
| 2026-05-06 15:12 | 41.91837 | 21.76312 | 33977 ft | 417 kts | 309° |
| 2026-05-06 15:12 | 41.95692 | 21.70492 | 33973 ft | 417 kts | 309° |
| 2026-05-06 15:13 | 41.99552 | 21.64657 | 33971 ft | 417 kts | 309° |
| 2026-05-06 15:13 | 42.03397 | 21.58822 | 33969 ft | 417 kts | 309° |
| 2026-05-06 15:14 | 42.07246 | 21.52976 | 33979 ft | 417 kts | 309° |
| 2026-05-06 15:14 | 42.11098 | 21.47129 | 33983 ft | 417 kts | 309° |
| 2026-05-06 15:15 | 42.14950 | 21.41266 | 33982 ft | 417 kts | 309° |
| 2026-05-06 15:15 | 42.18762 | 21.35372 | 33988 ft | 417 kts | 308° |
| 2026-05-06 15:16 | 42.22508 | 21.29399 | 33987 ft | 416 kts | 308° |
| 2026-05-06 15:16 | 42.26244 | 21.23406 | 34000 ft | 417 kts | 308° |
| 2026-05-06 15:17 | 42.29986 | 21.17441 | 34004 ft | 417 kts | 308° |
| 2026-05-06 15:17 | 42.33746 | 21.11460 | 34020 ft | 417 kts | 308° |
| 2026-05-06 15:18 | 42.37496 | 21.05470 | 34013 ft | 418 kts | 308° |
| 2026-05-06 15:18 | 42.41256 | 20.99456 | 34016 ft | 418 kts | 308° |
| 2026-05-06 15:19 | 42.45016 | 20.93442 | 34013 ft | 419 kts | 308° |
| 2026-05-06 15:19 | 42.48770 | 20.87404 | 34025 ft | 419 kts | 308° |
| 2026-05-06 15:20 | 42.52522 | 20.81346 | 34027 ft | 419 kts | 308° |
| 2026-05-06 15:20 | 42.56276 | 20.75294 | 34027 ft | 419 kts | 307° |
| 2026-05-06 15:21 | 42.60026 | 20.69227 | 34025 ft | 419 kts | 307° |
| 2026-05-06 15:21 | 42.63803 | 20.63113 | 34108 ft | 421 kts | 307° |
| 2026-05-06 15:21 | 42.65687 | 20.60052 | 34332 ft | 422 kts | 307° |
| 2026-05-06 15:22 | 42.67566 | 20.56995 | 34595 ft | 421 kts | 307° |
| 2026-05-06 15:22 | 42.69445 | 20.53939 | 34844 ft | 421 kts | 307° |
| 2026-05-06 15:22 | 42.71331 | 20.50873 | 35088 ft | 421 kts | 307° |
| 2026-05-06 15:22 | 42.73209 | 20.47822 | 35317 ft | 420 kts | 307° |
| 2026-05-06 15:23 | 42.75082 | 20.44773 | 35561 ft | 420 kts | 307° |
| 2026-05-06 15:23 | 42.76950 | 20.41718 | 35768 ft | 420 kts | 307° |
| 2026-05-06 15:23 | 42.78818 | 20.38657 | 35939 ft | 420 kts | 307° |
| 2026-05-06 15:24 | 42.82554 | 20.32520 | 36018 ft | 421 kts | 308° |
| 2026-05-06 15:24 | 42.86828 | 20.27021 | 36015 ft | 423 kts | 316° |
| 2026-05-06 15:25 | 42.91251 | 20.21720 | 36015 ft | 424 kts | 316° |
| 2026-05-06 15:25 | 42.95810 | 20.16242 | 36018 ft | 424 kts | 315° |
| 2026-05-06 15:26 | 43.00221 | 20.10916 | 36015 ft | 424 kts | 315° |
| 2026-05-06 15:26 | 43.04638 | 20.05570 | 36022 ft | 424 kts | 315° |
| 2026-05-06 15:27 | 43.09055 | 20.00219 | 36016 ft | 424 kts | 315° |
| 2026-05-06 15:27 | 43.13464 | 19.94861 | 36017 ft | 424 kts | 315° |
| 2026-05-06 15:28 | 43.17871 | 19.89495 | 36021 ft | 424 kts | 315° |
| 2026-05-06 15:28 | 43.22282 | 19.84124 | 36021 ft | 424 kts | 315° |
| 2026-05-06 15:29 | 43.26719 | 19.78707 | 36019 ft | 424 kts | 315° |
| 2026-05-06 15:29 | 43.31125 | 19.73313 | 36008 ft | 425 kts | 315° |
| 2026-05-06 15:30 | 43.35537 | 19.67906 | 35993 ft | 425 kts | 315° |
| 2026-05-06 15:30 | 43.39943 | 19.62488 | 35989 ft | 425 kts | 315° |
| 2026-05-06 15:31 | 43.44352 | 19.57053 | 35994 ft | 425 kts | 315° |
| 2026-05-06 15:31 | 43.48766 | 19.51611 | 35993 ft | 426 kts | 315° |
| 2026-05-06 15:32 | 43.55396 | 19.43418 | 35978 ft | 427 kts | 315° |
| 2026-05-06 15:32 | 43.59824 | 19.37943 | 35978 ft | 427 kts | 315° |
| 2026-05-06 15:33 | 43.64213 | 19.32492 | 35973 ft | 427 kts | 315° |
| 2026-05-06 15:33 | 43.68658 | 19.26950 | 35971 ft | 428 kts | 314° |
| 2026-05-06 15:34 | 43.72326 | 19.22359 | 35971 ft | 428 kts | 314° |
| 2026-05-06 15:34 | 43.76739 | 19.16835 | 35964 ft | 428 kts | 314° |
| 2026-05-06 15:35 | 43.81879 | 19.10405 | 35967 ft | 428 kts | 314° |
| 2026-05-06 15:35 | 43.85580 | 19.05757 | 35968 ft | 429 kts | 314° |
| 2026-05-06 15:36 | 43.90006 | 19.00203 | 35969 ft | 429 kts | 314° |
| 2026-05-06 15:36 | 43.94426 | 18.94641 | 35967 ft | 429 kts | 314° |
| 2026-05-06 15:37 | 43.98838 | 18.89064 | 35957 ft | 429 kts | 314° |
| 2026-05-06 15:37 | 44.03248 | 18.83473 | 35968 ft | 429 kts | 314° |
| 2026-05-06 15:38 | 44.07661 | 18.77868 | 35957 ft | 430 kts | 313° |
| 2026-05-06 15:38 | 44.12081 | 18.72252 | 35960 ft | 430 kts | 313° |
| 2026-05-06 15:39 | 44.16505 | 18.66617 | 35948 ft | 431 kts | 313° |
| 2026-05-06 15:39 | 44.20916 | 18.60977 | 35948 ft | 431 kts | 313° |
| 2026-05-06 15:40 | 44.25307 | 18.55363 | 35954 ft | 431 kts | 313° |
| 2026-05-06 15:40 | 44.29722 | 18.49710 | 35929 ft | 431 kts | 313° |
| 2026-05-06 15:41 | 44.34166 | 18.44001 | 35920 ft | 431 kts | 313° |
| 2026-05-06 15:41 | 44.38602 | 18.38295 | 35918 ft | 431 kts | 313° |
| 2026-05-06 15:42 | 44.43017 | 18.32608 | 35929 ft | 430 kts | 313° |
| 2026-05-06 15:42 | 44.47414 | 18.26925 | 35934 ft | 431 kts | 313° |
| 2026-05-06 15:43 | 44.51815 | 18.21212 | 35941 ft | 431 kts | 313° |
| 2026-05-06 15:43 | 44.56214 | 18.15492 | 35933 ft | 431 kts | 313° |
| 2026-05-06 15:44 | 44.60612 | 18.09772 | 35932 ft | 431 kts | 313° |
| 2026-05-06 15:44 | 44.65009 | 18.04045 | 35925 ft | 431 kts | 313° |
| 2026-05-06 15:45 | 44.69410 | 17.98300 | 35919 ft | 432 kts | 312° |
| 2026-05-06 15:45 | 44.73805 | 17.92541 | 35915 ft | 432 kts | 312° |
| 2026-05-06 15:46 | 44.78198 | 17.86770 | 35932 ft | 432 kts | 312° |
| 2026-05-06 15:46 | 44.82589 | 17.80997 | 35931 ft | 432 kts | 312° |
| 2026-05-06 15:47 | 44.86973 | 17.75218 | 35929 ft | 432 kts | 312° |
| 2026-05-06 15:47 | 44.91362 | 17.69417 | 35920 ft | 433 kts | 312° |
| 2026-05-06 15:48 | 44.95756 | 17.63602 | 35918 ft | 433 kts | 312° |
| 2026-05-06 15:48 | 45.00147 | 17.57779 | 35924 ft | 433 kts | 311° |
| 2026-05-06 15:49 | 45.04539 | 17.51934 | 35923 ft | 433 kts | 311° |
| 2026-05-06 15:49 | 45.08925 | 17.46084 | 35935 ft | 433 kts | 311° |
| 2026-05-06 15:50 | 45.13311 | 17.40212 | 35926 ft | 434 kts | 311° |
| 2026-05-06 15:50 | 45.17631 | 17.34252 | 35922 ft | 433 kts | 310° |
| 2026-05-06 15:51 | 45.21879 | 17.28187 | 35922 ft | 433 kts | 310° |
| 2026-05-06 15:51 | 45.26127 | 17.22118 | 35937 ft | 434 kts | 310° |
| 2026-05-06 15:52 | 45.30398 | 17.16053 | 35924 ft | 435 kts | 310° |
| 2026-05-06 15:52 | 45.34682 | 17.09969 | 35918 ft | 436 kts | 310° |
| 2026-05-06 15:53 | 45.38968 | 17.03857 | 35917 ft | 436 kts | 310° |
| 2026-05-06 15:53 | 45.43267 | 16.97712 | 35917 ft | 436 kts | 310° |
| 2026-05-06 15:54 | 45.47533 | 16.91600 | 35929 ft | 437 kts | 309° |
| 2026-05-06 15:54 | 45.51837 | 16.85440 | 35910 ft | 439 kts | 310° |
| 2026-05-06 15:55 | 45.56148 | 16.79247 | 35907 ft | 440 kts | 309° |
| 2026-05-06 15:55 | 45.60428 | 16.73069 | 35907 ft | 440 kts | 309° |
| 2026-05-06 15:56 | 45.64767 | 16.66797 | 35910 ft | 441 kts | 309° |
| 2026-05-06 15:56 | 45.69083 | 16.60555 | 35926 ft | 441 kts | 309° |
| 2026-05-06 15:57 | 45.73394 | 16.54303 | 35931 ft | 441 kts | 309° |
| 2026-05-06 15:57 | 45.77696 | 16.48040 | 35939 ft | 441 kts | 309° |
| 2026-05-06 15:58 | 45.81960 | 16.41806 | 35932 ft | 440 kts | 309° |
| 2026-05-06 15:58 | 45.86266 | 16.35497 | 35947 ft | 440 kts | 310° |
| 2026-05-06 15:59 | 45.90559 | 16.29243 | 35943 ft | 440 kts | 311° |
| 2026-05-06 15:59 | 45.95085 | 16.23297 | 35934 ft | 442 kts | 314° |
| 2026-05-06 16:00 | 45.99737 | 16.17499 | 35930 ft | 442 kts | 314° |
| 2026-05-06 16:00 | 46.04346 | 16.11670 | 35936 ft | 441 kts | 313° |
| 2026-05-06 16:01 | 46.08905 | 16.05749 | 35940 ft | 441 kts | 313° |
| 2026-05-06 16:01 | 46.13458 | 15.99802 | 35922 ft | 442 kts | 313° |
| 2026-05-06 16:02 | 46.18025 | 15.93844 | 35916 ft | 442 kts | 313° |
| 2026-05-06 16:02 | 46.22589 | 15.87884 | 35909 ft | 443 kts | 313° |
| 2026-05-06 16:03 | 46.27156 | 15.81905 | 35906 ft | 442 kts | 313° |
| 2026-05-06 16:03 | 46.31673 | 15.75837 | 35920 ft | 443 kts | 311° |
| 2026-05-06 16:04 | 46.36126 | 15.69742 | 35910 ft | 443 kts | 311° |
| 2026-05-06 16:04 | 46.40624 | 15.63564 | 35905 ft | 443 kts | 311° |
| 2026-05-06 16:05 | 46.44348 | 15.58459 | 35901 ft | 443 kts | 311° |
| 2026-05-06 16:05 | 46.48865 | 15.52278 | 35902 ft | 443 kts | 311° |
| 2026-05-06 16:06 | 46.53359 | 15.46131 | 35913 ft | 443 kts | 311° |
| 2026-05-06 16:06 | 46.57831 | 15.39971 | 35917 ft | 443 kts | 311° |
| 2026-05-06 16:07 | 46.62295 | 15.33812 | 35905 ft | 441 kts | 311° |
| 2026-05-06 16:07 | 46.66742 | 15.27663 | 35899 ft | 441 kts | 311° |
| 2026-05-06 16:08 | 46.71181 | 15.21497 | 35889 ft | 440 kts | 310° |
| 2026-05-06 16:08 | 46.75614 | 15.15345 | 35900 ft | 441 kts | 311° |
| 2026-05-06 16:09 | 46.80049 | 15.09172 | 35906 ft | 440 kts | 311° |
| 2026-05-06 16:09 | 46.84462 | 15.03003 | 35902 ft | 439 kts | 310° |
| 2026-05-06 16:10 | 46.88863 | 14.96828 | 35897 ft | 438 kts | 310° |
| 2026-05-06 16:10 | 46.93267 | 14.90650 | 35881 ft | 438 kts | 310° |
| 2026-05-06 16:11 | 46.97664 | 14.84475 | 35880 ft | 438 kts | 310° |
| 2026-05-06 16:11 | 47.02061 | 14.78281 | 35866 ft | 438 kts | 310° |
| 2026-05-06 16:12 | 47.06452 | 14.72072 | 35887 ft | 439 kts | 310° |
| 2026-05-06 16:12 | 47.10838 | 14.65851 | 35888 ft | 438 kts | 309° |
| 2026-05-06 16:13 | 47.15248 | 14.59594 | 35881 ft | 437 kts | 309° |
| 2026-05-06 16:13 | 47.19623 | 14.53369 | 35885 ft | 438 kts | 309° |
| 2026-05-06 16:14 | 47.24004 | 14.47115 | 35859 ft | 439 kts | 309° |
| 2026-05-06 16:14 | 47.28386 | 14.40834 | 35851 ft | 440 kts | 309° |
| 2026-05-06 16:15 | 47.32774 | 14.34535 | 35846 ft | 441 kts | 309° |
| 2026-05-06 16:15 | 47.37167 | 14.28216 | 35831 ft | 441 kts | 309° |
| 2026-05-06 16:16 | 47.41566 | 14.21896 | 35847 ft | 441 kts | 309° |
| 2026-05-06 16:16 | 47.45955 | 14.15571 | 35827 ft | 441 kts | 308° |
| 2026-05-06 16:17 | 47.50334 | 14.09223 | 35811 ft | 440 kts | 308° |
| 2026-05-06 16:17 | 47.54697 | 14.02877 | 35793 ft | 439 kts | 308° |
| 2026-05-06 16:18 | 47.59064 | 13.96518 | 35789 ft | 440 kts | 308° |
| 2026-05-06 16:18 | 47.63459 | 13.90112 | 35780 ft | 441 kts | 308° |
| 2026-05-06 16:19 | 47.67824 | 13.83725 | 35747 ft | 441 kts | 308° |
| 2026-05-06 16:19 | 47.72199 | 13.77314 | 35742 ft | 442 kts | 308° |
| 2026-05-06 16:20 | 47.76579 | 13.70888 | 35718 ft | 442 kts | 308° |
| 2026-05-06 16:20 | 47.80939 | 13.64455 | 35719 ft | 442 kts | 307° |
| 2026-05-06 16:21 | 47.85309 | 13.58006 | 35730 ft | 443 kts | 307° |
| 2026-05-06 16:21 | 47.89676 | 13.51541 | 35709 ft | 443 kts | 307° |
| 2026-05-06 16:22 | 47.94041 | 13.45047 | 35695 ft | 443 kts | 307° |
| 2026-05-06 16:22 | 47.98410 | 13.38541 | 35690 ft | 444 kts | 307° |
| 2026-05-06 16:23 | 48.02784 | 13.32020 | 35692 ft | 444 kts | 307° |
| 2026-05-06 16:23 | 48.07148 | 13.25486 | 35715 ft | 444 kts | 307° |
| 2026-05-06 16:24 | 48.11515 | 13.18938 | 35700 ft | 445 kts | 307° |
| 2026-05-06 16:24 | 48.15881 | 13.12375 | 35696 ft | 445 kts | 307° |
| 2026-05-06 16:25 | 48.20245 | 13.05789 | 35697 ft | 445 kts | 307° |
| 2026-05-06 16:25 | 48.24572 | 12.99157 | 35697 ft | 443 kts | 305° |
| 2026-05-06 16:26 | 48.28674 | 12.92283 | 35737 ft | 441 kts | 303° |
| 2026-05-06 16:26 | 48.32681 | 12.85294 | 35720 ft | 441 kts | 303° |
| 2026-05-06 16:27 | 48.36719 | 12.78341 | 35719 ft | 442 kts | 304° |
| 2026-05-06 16:27 | 48.40778 | 12.71431 | 35717 ft | 442 kts | 304° |
| 2026-05-06 16:28 | 48.44838 | 12.64513 | 35719 ft | 442 kts | 304° |
| 2026-05-06 16:28 | 48.48942 | 12.57493 | 35706 ft | 442 kts | 304° |
| 2026-05-06 16:29 | 48.53000 | 12.50530 | 35716 ft | 442 kts | 304° |
| 2026-05-06 16:29 | 48.57054 | 12.43549 | 35725 ft | 442 kts | 304° |
| 2026-05-06 16:30 | 48.59728 | 12.38928 | 35730 ft | 441 kts | 304° |
| 2026-05-06 16:30 | 48.65126 | 12.29567 | 35743 ft | 441 kts | 304° |
| 2026-05-06 16:31 | 48.69157 | 12.22556 | 35779 ft | 442 kts | 304° |
| 2026-05-06 16:31 | 48.73024 | 12.15383 | 35761 ft | 434 kts | 295° |
| 2026-05-06 16:32 | 48.75439 | 12.07203 | 35762 ft | 420 kts | 278° |
| 2026-05-06 16:32 | 48.76482 | 11.98568 | 35752 ft | 415 kts | 274° |
| 2026-05-06 16:33 | 48.77414 | 11.89924 | 35764 ft | 416 kts | 274° |
| 2026-05-06 16:34 | 48.78793 | 11.76917 | 35778 ft | 416 kts | 273° |
| 2026-05-06 16:34 | 48.79554 | 11.69704 | 35769 ft | 417 kts | 273° |
| 2026-05-06 16:35 | 48.80613 | 11.59587 | 35762 ft | 417 kts | 273° |
| 2026-05-06 16:35 | 48.81521 | 11.50851 | 35762 ft | 417 kts | 273° |
| 2026-05-06 16:36 | 48.82268 | 11.43625 | 35766 ft | 417 kts | 273° |
| 2026-05-06 16:36 | 48.83161 | 11.34921 | 35782 ft | 417 kts | 273° |
| 2026-05-06 16:37 | 48.84314 | 11.26194 | 35767 ft | 425 kts | 283° |
| 2026-05-06 16:37 | 48.85540 | 11.22065 | 35759 ft | 434 kts | 294° |
| 2026-05-06 16:37 | 48.87283 | 11.18275 | 35759 ft | 443 kts | 304° |
| 2026-05-06 16:38 | 48.91800 | 11.11750 | 35756 ft | 450 kts | 311° |
| 2026-05-06 16:38 | 48.94115 | 11.08534 | 35573 ft | 453 kts | 310° |
| 2026-05-06 16:38 | 48.96441 | 11.05288 | 34991 ft | 453 kts | 310° |
| 2026-05-06 16:38 | 48.98759 | 11.02049 | 34478 ft | 452 kts | 310° |
| 2026-05-06 16:39 | 49.01101 | 10.98769 | 33932 ft | 451 kts | 309° |
| 2026-05-06 16:39 | 49.03408 | 10.95530 | 33344 ft | 451 kts | 309° |
| 2026-05-06 16:39 | 49.05710 | 10.92287 | 32729 ft | 451 kts | 309° |
| 2026-05-06 16:39 | 49.08018 | 10.89028 | 32109 ft | 451 kts | 310° |
| 2026-05-06 16:40 | 49.10315 | 10.85790 | 31522 ft | 448 kts | 310° |
| 2026-05-06 16:40 | 49.12592 | 10.82578 | 30945 ft | 444 kts | 310° |
| 2026-05-06 16:40 | 49.14872 | 10.79358 | 30356 ft | 435 kts | 310° |
| 2026-05-06 16:40 | 49.17043 | 10.76281 | 29795 ft | 427 kts | 310° |
| 2026-05-06 16:41 | 49.19205 | 10.73213 | 29133 ft | 420 kts | 310° |
| 2026-05-06 16:41 | 49.21303 | 10.70153 | 28467 ft | 413 kts | 309° |
| 2026-05-06 16:41 | 49.23317 | 10.67053 | 27824 ft | 409 kts | 309° |
| 2026-05-06 16:41 | 49.25278 | 10.63926 | 27182 ft | 403 kts | 309° |
| 2026-05-06 16:42 | 49.27191 | 10.60836 | 26565 ft | 396 kts | 309° |
| 2026-05-06 16:42 | 49.29068 | 10.57800 | 25947 ft | 390 kts | 309° |
| 2026-05-06 16:42 | 49.30929 | 10.54806 | 25351 ft | 385 kts | 309° |
| 2026-05-06 16:42 | 49.32775 | 10.51857 | 24758 ft | 379 kts | 310° |
| 2026-05-06 16:43 | 49.34593 | 10.48971 | 24186 ft | 374 kts | 310° |
| 2026-05-06 16:43 | 49.36310 | 10.46052 | 23857 ft | 360 kts | 303° |
| 2026-05-06 16:43 | 49.37750 | 10.42958 | 23771 ft | 354 kts | 301° |
| 2026-05-06 16:43 | 49.39169 | 10.39857 | 23784 ft | 354 kts | 301° |
| 2026-05-06 16:44 | 49.40590 | 10.36758 | 23786 ft | 355 kts | 301° |
| 2026-05-06 16:44 | 49.42007 | 10.33662 | 23785 ft | 354 kts | 301° |
| 2026-05-06 16:44 | 49.43420 | 10.30567 | 23815 ft | 355 kts | 301° |
| 2026-05-06 16:44 | 49.44840 | 10.27451 | 23810 ft | 356 kts | 301° |
| 2026-05-06 16:45 | 49.46261 | 10.24327 | 23571 ft | 358 kts | 301° |
| 2026-05-06 16:45 | 49.47686 | 10.21184 | 23116 ft | 357 kts | 301° |
| 2026-05-06 16:45 | 49.49109 | 10.18049 | 22616 ft | 357 kts | 301° |
| 2026-05-06 16:45 | 49.50528 | 10.14918 | 22128 ft | 356 kts | 301° |
| 2026-05-06 16:46 | 49.51987 | 10.11696 | 21631 ft | 355 kts | 301° |
| 2026-05-06 16:46 | 49.53374 | 10.08634 | 21172 ft | 354 kts | 302° |
| 2026-05-06 16:46 | 49.54795 | 10.05498 | 20704 ft | 353 kts | 302° |
| 2026-05-06 16:46 | 49.56181 | 10.02429 | 20252 ft | 351 kts | 301° |
| 2026-05-06 16:47 | 49.57632 | 9.99205 | 19780 ft | 350 kts | 301° |
| 2026-05-06 16:47 | 49.58940 | 9.96289 | 19361 ft | 349 kts | 301° |
| 2026-05-06 16:47 | 49.60314 | 9.93222 | 18921 ft | 347 kts | 301° |
| 2026-05-06 16:47 | 49.61704 | 9.90119 | 18500 ft | 346 kts | 302° |
| 2026-05-06 16:48 | 49.63068 | 9.87070 | 18073 ft | 345 kts | 302° |
| 2026-05-06 16:48 | 49.64411 | 9.84071 | 17592 ft | 344 kts | 302° |
| 2026-05-06 16:48 | 49.65779 | 9.81016 | 17111 ft | 345 kts | 302° |
| 2026-05-06 16:48 | 49.67163 | 9.77919 | 16620 ft | 346 kts | 302° |
| 2026-05-06 16:49 | 49.68522 | 9.74876 | 16160 ft | 345 kts | 302° |
| 2026-05-06 16:49 | 49.69882 | 9.71828 | 15692 ft | 344 kts | 302° |
| 2026-05-06 16:49 | 49.71240 | 9.68780 | 15246 ft | 343 kts | 302° |
| 2026-05-06 16:49 | 49.72590 | 9.65740 | 14808 ft | 343 kts | 302° |
| 2026-05-06 16:50 | 49.73934 | 9.62708 | 14357 ft | 340 kts | 302° |
| 2026-05-06 16:50 | 49.75244 | 9.59753 | 13952 ft | 326 kts | 302° |
| 2026-05-06 16:50 | 49.76505 | 9.56907 | 13567 ft | 314 kts | 302° |
| 2026-05-06 16:50 | 49.77725 | 9.54166 | 13140 ft | 306 kts | 304° |
| 2026-05-06 16:51 | 49.79260 | 9.51903 | 12722 ft | 305 kts | 322° |
| 2026-05-06 16:51 | 49.80999 | 9.50049 | 12325 ft | 304 kts | 324° |
| 2026-05-06 16:51 | 49.82760 | 9.48241 | 11904 ft | 305 kts | 324° |
| 2026-05-06 16:51 | 49.84530 | 9.46412 | 11494 ft | 305 kts | 324° |
| 2026-05-06 16:52 | 49.86296 | 9.44592 | 11097 ft | 305 kts | 323° |
| 2026-05-06 16:52 | 49.88051 | 9.42794 | 10693 ft | 299 kts | 324° |
| 2026-05-06 16:52 | 49.89771 | 9.41030 | 10305 ft | 295 kts | 324° |
| 2026-05-06 16:52 | 49.91477 | 9.39289 | 9916 ft | 293 kts | 324° |
| 2026-05-06 16:53 | 49.93178 | 9.37565 | 9513 ft | 291 kts | 324° |
| 2026-05-06 16:53 | 49.94849 | 9.35850 | 9084 ft | 283 kts | 324° |
| 2026-05-06 16:53 | 49.96454 | 9.34192 | 8658 ft | 271 kts | 319° |
| 2026-05-06 16:53 | 49.97727 | 9.32131 | 8247 ft | 263 kts | 306° |
| 2026-05-06 16:54 | 49.98869 | 9.29785 | 7843 ft | 276 kts | 304° |
| 2026-05-06 16:54 | 50.00009 | 9.27376 | 7475 ft | 276 kts | 304° |
| 2026-05-06 16:54 | 50.01142 | 9.24972 | 7127 ft | 275 kts | 304° |
| 2026-05-06 16:54 | 50.02272 | 9.22574 | 6783 ft | 274 kts | 304° |
| 2026-05-06 16:55 | 50.03399 | 9.20186 | 6438 ft | 273 kts | 304° |
| 2026-05-06 16:55 | 50.04523 | 9.17822 | 6096 ft | 270 kts | 304° |
| 2026-05-06 16:55 | 50.05609 | 9.15551 | 5652 ft | 269 kts | 304° |
| 2026-05-06 16:55 | 50.06745 | 9.13111 | 5343 ft | 272 kts | 304° |
| 2026-05-06 16:56 | 50.07843 | 9.10724 | 5030 ft | 271 kts | 304° |
| 2026-05-06 16:56 | 50.08800 | 9.08214 | 4742 ft | 268 kts | 289° |
| 2026-05-06 16:56 | 50.09362 | 9.05459 | 4494 ft | 266 kts | 284° |
| 2026-05-06 16:56 | 50.09860 | 9.02681 | 4311 ft | 266 kts | 284° |
| 2026-05-06 16:57 | 50.10347 | 8.99913 | 4134 ft | 260 kts | 284° |
| 2026-05-06 16:57 | 50.10800 | 8.97307 | 4012 ft | 239 kts | 284° |
| 2026-05-06 16:57 | 50.11213 | 8.94931 | 3997 ft | 215 kts | 284° |
| 2026-05-06 16:57 | 50.11577 | 8.92763 | 3997 ft | 200 kts | 278° |
| 2026-05-06 16:58 | 50.11549 | 8.90685 | 4024 ft | 190 kts | 255° |
| 2026-05-06 16:58 | 50.11121 | 8.88745 | 4012 ft | 189 kts | 249° |
| 2026-05-06 16:58 | 50.10670 | 8.86829 | 3965 ft | 189 kts | 249° |
| 2026-05-06 16:58 | 50.10211 | 8.84881 | 3789 ft | 189 kts | 249° |
| 2026-05-06 16:59 | 50.09766 | 8.82990 | 3549 ft | 188 kts | 248° |
| 2026-05-06 16:59 | 50.09314 | 8.81069 | 3322 ft | 189 kts | 249° |
| 2026-05-06 16:59 | 50.08861 | 8.79150 | 3075 ft | 189 kts | 249° |
| 2026-05-06 16:59 | 50.08404 | 8.77210 | 2810 ft | 194 kts | 249° |
| 2026-05-06 17:00 | 50.07936 | 8.75231 | 2544 ft | 195 kts | 249° |
| 2026-05-06 17:00 | 50.07468 | 8.73257 | 2279 ft | 192 kts | 250° |
| 2026-05-06 17:00 | 50.07025 | 8.71381 | 2032 ft | 177 kts | 250° |
| 2026-05-06 17:00 | 50.06618 | 8.69662 | 1819 ft | 163 kts | 250° |
| 2026-05-06 17:01 | 50.06362 | 8.68583 | 1680 ft | 158 kts | 250° |
| 2026-05-06 17:01 | 50.05984 | 8.66989 | 1470 ft | 153 kts | 250° |
| 2026-05-06 17:01 | 50.05622 | 8.65462 | 1275 ft | 151 kts | 250° |
| 2026-05-06 17:01 | 50.05260 | 8.63941 | 1115 ft | 148 kts | 251° |
| 2026-05-06 17:02 | 50.04906 | 8.62455 | 925 ft | 146 kts | 252° |
| 2026-05-06 17:02 | 50.04551 | 8.60985 | 716 ft | 144 kts | 252° |
| 2026-05-06 17:02 | 50.04201 | 8.59502 | 535 ft | 144 kts | 253° |
| 2026-05-06 17:02 | 50.03861 | 8.58063 | 377 ft | 141 kts | 253° |
| 2026-05-06 17:03 | 50.03558 | 8.56754 | 355 ft | 99 kts | 249° |
| 2026-05-06 17:03 | 50.03401 | 8.56115 | 354 ft | 47 kts | 250° |
| 2026-05-06 17:03 | 50.03321 | 8.55778 | 347 ft | 28 kts | 256° |
| 2026-05-06 17:03 | 50.03313 | 8.55502 | 343 ft | 19 kts | 279° |
| 2026-05-06 17:04 | 50.03334 | 8.55326 | 349 ft | 13 kts | 279° |
| 2026-05-06 17:04 | 50.03348 | 8.55183 | 353 ft | 14 kts | 279° |
| 2026-05-06 17:04 | 50.03365 | 8.55027 | 344 ft | 14 kts | 276° |
| 2026-05-06 17:04 | 50.03347 | 8.54862 | 337 ft | 18 kts | 248° |
| 2026-05-06 17:05 | 50.03303 | 8.54684 | 335 ft | 14 kts | 250° |
| 2026-05-06 17:05 | 50.03276 | 8.54566 | 334 ft | 10 kts | 254° |
| 2026-05-06 17:05 | 50.03303 | 8.54486 | 338 ft | 7 kts | 331° |
| 2026-05-06 17:05 | 50.03328 | 8.54471 | 335 ft | 1 kts | 340° |
| 2026-05-06 17:07 | 50.03337 | 8.54466 | 338 ft | 4 kts | 340° |
| 2026-05-06 17:07 | 50.03384 | 8.54441 | 337 ft | 10 kts | 340° |
| 2026-05-06 17:07 | 50.03460 | 8.54395 | 347 ft | 13 kts | 339° |
| 2026-05-06 17:08 | 50.03552 | 8.54344 | 343 ft | 14 kts | 340° |
| 2026-05-06 17:08 | 50.03618 | 8.54309 | 348 ft | 8 kts | 349° |
| 2026-05-06 17:08 | 50.03635 | 8.54311 | 345 ft | 0 kts | 8° |
| 2026-05-06 17:09 | 50.03636 | 8.54311 | 349 ft | 1 kts | 9° |
| 2026-05-06 17:09 | 50.03653 | 8.54323 | 349 ft | 4 kts | 32° |
| 2026-05-06 17:10 | 50.03678 | 8.54401 | 348 ft | 12 kts | 69° |
| 2026-05-06 17:10 | 50.03705 | 8.54512 | 350 ft | 10 kts | 69° |
| 2026-05-06 17:10 | 50.03724 | 8.54592 | 353 ft | 7 kts | 70° |
| 2026-05-06 17:10 | 50.03752 | 8.54712 | 351 ft | 16 kts | 70° |
| 2026-05-06 17:11 | 50.03788 | 8.54860 | 350 ft | 14 kts | 69° |
| 2026-05-06 17:11 | 50.03818 | 8.54984 | 356 ft | 10 kts | 69° |
| 2026-05-06 17:11 | 50.03838 | 8.55068 | 354 ft | 8 kts | 69° |
| 2026-05-06 17:11 | 50.03868 | 8.55195 | 356 ft | 17 kts | 69° |
| 2026-05-06 17:12 | 50.03912 | 8.55379 | 358 ft | 19 kts | 69° |
| 2026-05-06 17:12 | 50.03961 | 8.55583 | 354 ft | 21 kts | 69° |
| 2026-05-06 17:12 | 50.04015 | 8.55809 | 357 ft | 23 kts | 70° |
| 2026-05-06 17:12 | 50.04072 | 8.56051 | 358 ft | 24 kts | 70° |
| 2026-05-06 17:13 | 50.04123 | 8.56264 | 355 ft | 21 kts | 70° |
| 2026-05-06 17:13 | 50.04175 | 8.56481 | 359 ft | 22 kts | 70° |
| 2026-05-06 17:13 | 50.04225 | 8.56688 | 357 ft | 17 kts | 71° |
| 2026-05-06 17:13 | 50.04269 | 8.56801 | 359 ft | 10 kts | 28° |
| 2026-05-06 17:14 | 50.04348 | 8.56828 | 360 ft | 14 kts | 11° |
| 2026-05-06 17:14 | 50.04455 | 8.56857 | 361 ft | 17 kts | 10° |
| 2026-05-06 17:14 | 50.04573 | 8.56898 | 362 ft | 14 kts | 13° |
| 2026-05-06 17:14 | 50.04658 | 8.56938 | 363 ft | 14 kts | 22° |
| 2026-05-06 17:15 | 50.04730 | 8.56989 | 356 ft | 11 kts | 25° |
| 2026-05-06 17:15 | 50.04802 | 8.57041 | 359 ft | 9 kts | 25° |
| 2026-05-06 17:15 | 50.04848 | 8.57073 | 358 ft | 3 kts | 23° |
| 2026-05-06 17:15 | 50.04865 | 8.57077 | 358 ft | 2 kts | 358° |
| 2026-05-06 17:16 | 50.04875 | 8.57066 | 356 ft | 4 kts | 317° |
| 2026-05-06 17:16 | 50.04887 | 8.57022 | 361 ft | 4 kts | 290° |
| 2026-05-06 17:16 | 50.04895 | 8.56996 | 365 ft | 1 kts | 294° |
| 2026-05-06 17:16 | 50.04895 | 8.56993 | 365 ft | 0 kts | 294° |